Portada
METAR-TAF:

METAR-TAF

Aeroports :

George Town, Grand Cayman, Illes Caiman

latitud: 19-17N, longitud: 081-21W, altitud: 3 m

Observació

L'informe es va fer fa 4 hores i 25 minuts, a les 03:00 UTC
Temperatura 28°C
Humitat 84%
Pressió 1014 hPa
Visibilitat 10 km o més
Escasses núvols a una alçada de 1800 ft

METAR: MWCR 210300Z /////KT 9999 FEW018 28/25 Q1014 RMK WINDS ESTIMATED 00000KT

Hora: 02:25 (07:25 UTC)

Pronòstic

L'informe es va fer fa 8 hores i 25 minuts, a les 23:00 UTC
Pronòstic vàlid del 21 a les 00 UTC al 21 a les 24 UTC
Vent 10 kt del Est
Visibilitat 10 km o més
Escasses núvols a una alçada de 1800 ft
xàfecs en les proximitats
Temporalment
l' 20 a les 12 UTC al 20 a les 18 UTC
Visibilitat: 9000 m
Núvols disperses a una alçada de 1600 ft
xàfecs de pluja

TAF: MWCR 202300Z 2100/2124 08010KT 9999 VCSH FEW018 TEMPO 2012/2018 9000 SHRA SCT016

Observacions i pronòstics meteorològics de més de 4000 aeroports (METAR i TAF).

Les estacions disponibles són els punts grocs i vermells al mapa.

Posi el ratolí al punt desitjat per veure el nom de l'estació.

Feu clic per veure les observacions i els pronòstics meteorològics.

Per canviar el mapa: feu clic els botons verds amb una creu de color negre per apropar; al botó verd amb un guió per allunyar la imatge; o en les fletxes verdes per a mapes adjacents.


METAR-TAF: